createdAt,value
2018-05-18T00:01:05.547Z,96071.83
2018-05-18T00:03:33.283Z,96076.25
2018-05-18T00:06:01.497Z,96071.03
2018-05-18T00:08:31.492Z,96071.00
2018-05-18T00:11:04.498Z,96077.94
2018-05-18T00:13:33.261Z,96079.25
2018-05-18T00:16:02.998Z,96078.63
2018-05-18T00:18:30.694Z,96084.25
2018-05-18T00:20:58.472Z,96082.38
2018-05-18T00:23:27.942Z,96081.77
2018-05-18T00:25:55.761Z,96082.91
2018-05-18T00:28:23.428Z,96080.12
2018-05-18T00:30:51.971Z,96080.77
2018-05-18T00:33:22.021Z,96081.52
2018-05-18T00:35:50.696Z,96079.97
2018-05-18T00:38:18.449Z,96083.21
2018-05-18T00:40:46.939Z,96077.33
2018-05-18T00:43:14.685Z,96081.33
2018-05-18T00:45:42.953Z,96082.06
2018-05-18T00:48:12.798Z,96081.59
2018-05-18T00:50:41.140Z,96079.90
2018-05-18T00:53:09.948Z,96075.86
2018-05-18T00:55:42.510Z,96077.73
2018-05-18T00:58:11.103Z,96082.62
2018-05-18T01:00:38.972Z,96073.78
2018-05-18T01:03:07.355Z,96074.95
2018-05-18T01:05:35.184Z,96077.73
2018-05-18T01:08:03.038Z,96076.05
2018-05-18T01:10:30.831Z,96074.61
2018-05-18T01:12:59.344Z,96075.16
2018-05-18T01:15:27.026Z,96076.05
2018-05-18T01:17:56.048Z,96073.88
2018-05-18T01:20:26.282Z,96070.95
2018-05-18T01:22:53.945Z,96074.48
2018-05-18T01:25:22.650Z,96073.58
2018-05-18T01:27:51.441Z,96074.58
2018-05-18T01:30:20.574Z,96071.48
2018-05-18T01:32:48.448Z,96071.34
2018-05-18T01:35:16.304Z,96071.54
2018-05-18T01:37:44.082Z,96078.69
2018-05-18T01:40:11.819Z,96073.01
2018-05-18T01:42:39.497Z,96074.42
2018-05-18T01:47:57.361Z,96079.09
2018-05-18T01:50:25.079Z,96082.33
2018-05-18T01:52:52.815Z,96078.27
2018-05-18T01:55:20.529Z,96081.43
2018-05-18T01:57:48.230Z,96086.06
2018-05-18T02:00:16.856Z,96086.94
2018-05-18T02:02:45.575Z,96093.23
2018-05-18T02:05:14.204Z,96088.55
2018-05-18T02:07:41.941Z,96090.64
2018-05-18T02:10:10.474Z,96088.66
2018-05-18T02:12:38.257Z,96088.45
2018-05-18T02:15:05.958Z,96088.30
2018-05-18T02:17:33.611Z,96086.02
2018-05-18T02:20:01.247Z,96088.77
2018-05-18T02:22:29.145Z,96082.44
2018-05-18T02:24:57.019Z,96064.57
2018-05-18T02:27:24.727Z,96084.89
2018-05-18T02:29:52.434Z,96087.41
2018-05-18T02:32:20.174Z,96088.28
2018-05-18T02:34:47.880Z,96093.42
2018-05-18T02:37:15.594Z,96090.37
2018-05-18T02:39:43.996Z,96092.08
2018-05-18T02:42:12.458Z,96091.52
2018-05-18T02:44:41.076Z,96091.05
2018-05-18T02:47:09.058Z,96093.89
2018-05-18T02:49:36.715Z,96100.73
2018-05-18T02:52:05.355Z,96098.30
2018-05-18T02:54:33.077Z,96102.23
2018-05-18T02:57:00.781Z,96101.38
2018-05-18T02:59:29.743Z,96101.64
2018-05-18T03:01:57.437Z,96101.94
2018-05-18T03:04:25.154Z,96110.69
2018-05-18T03:06:52.971Z,96120.10
2018-05-18T03:09:21.444Z,96120.17
2018-05-18T03:11:49.115Z,96123.36
2018-05-18T03:14:16.787Z,96127.34
2018-05-18T03:16:44.513Z,96128.56
2018-05-18T03:19:14.815Z,96132.43
2018-05-18T03:21:42.527Z,96131.02
2018-05-18T03:24:11.049Z,96134.61
2018-05-18T03:26:39.158Z,96137.58
2018-05-18T03:29:08.043Z,96139.34
2018-05-18T03:31:37.296Z,96132.98
2018-05-18T03:34:07.550Z,96133.77
2018-05-18T03:36:35.232Z,96137.28
2018-05-18T03:39:02.974Z,96138.61
2018-05-18T03:41:30.794Z,96135.83
2018-05-18T03:44:00.737Z,96131.84
2018-05-18T03:46:28.513Z,96136.78
2018-05-18T03:48:56.331Z,96135.34
2018-05-18T03:51:24.160Z,96136.09
2018-05-18T03:53:52.007Z,96132.23
2018-05-18T03:56:19.765Z,96135.48
2018-05-18T03:58:47.522Z,96142.35
2018-05-18T04:01:27.026Z,96146.22
2018-05-18T04:04:06.327Z,96146.88
2018-05-18T04:06:49.265Z,96152.64
2018-05-18T04:09:17.866Z,96156.66
2018-05-18T04:11:45.803Z,96150.46
2018-05-18T04:14:14.175Z,96151.41
2018-05-18T04:16:41.942Z,96146.17
2018-05-18T04:19:09.834Z,96140.32
2018-05-18T04:21:38.325Z,96144.23
2018-05-18T04:24:09.362Z,96142.20
2018-05-18T04:26:37.615Z,96141.72
2018-05-18T04:29:06.154Z,96137.69
2018-05-18T04:31:35.503Z,96143.44
2018-05-18T04:34:04.354Z,96147.49
2018-05-18T04:36:32.020Z,96155.34
2018-05-18T04:38:59.830Z,96154.12
2018-05-18T04:41:27.590Z,96158.89
2018-05-18T04:43:55.286Z,96162.63
2018-05-18T04:46:23.457Z,96148.27
2018-05-18T04:48:52.777Z,96156.03
2018-05-18T04:51:20.533Z,96154.66
2018-05-18T04:53:48.203Z,96160.55
2018-05-18T04:56:15.944Z,96160.01
2018-05-18T04:58:43.618Z,96154.51
2018-05-18T05:03:45.299Z,96153.75
2018-05-18T05:06:12.964Z,96161.06
2018-05-18T05:08:40.967Z,96165.19
2018-05-18T05:11:12.544Z,96167.50
2018-05-18T05:13:42.634Z,96159.48
2018-05-18T05:16:10.376Z,96164.70
2018-05-18T05:18:38.072Z,96163.41
2018-05-18T05:21:06.390Z,96165.31
2018-05-18T05:23:34.188Z,96157.15
2018-05-18T05:26:02.623Z,96161.67
2018-05-18T05:28:33.215Z,96160.23
2018-05-18T05:31:03.061Z,96162.86
2018-05-18T05:33:32.330Z,96164.89
2018-05-18T05:36:01.890Z,96169.35
2018-05-18T05:38:29.676Z,96165.67
2018-05-18T05:40:58.869Z,96159.10
2018-05-18T05:43:28.162Z,96159.98
2018-05-18T05:45:57.760Z,96165.67
2018-05-18T05:48:25.569Z,96163.62
2018-05-18T05:50:53.269Z,96165.50
2018-05-18T05:53:21.049Z,96162.92
2018-05-18T05:58:39.526Z,96161.75
2018-05-18T06:01:10.106Z,96165.56
2018-05-18T06:03:39.083Z,96164.42
2018-05-18T06:06:10.660Z,96165.68
2018-05-18T06:08:40.967Z,96168.41
2018-05-18T06:11:08.722Z,96163.13
2018-05-18T06:13:40.134Z,96169.81
2018-05-18T06:16:08.369Z,96165.30
2018-05-18T06:18:40.012Z,96164.97
2018-05-18T06:21:12.835Z,96170.42
2018-05-18T06:23:40.565Z,96169.53
2018-05-18T06:26:08.832Z,96171.56
2018-05-18T06:28:36.536Z,96169.75
2018-05-18T06:31:06.218Z,96171.35
2018-05-18T06:33:33.843Z,96160.73
2018-05-18T06:36:01.531Z,96170.15
2018-05-18T06:38:30.408Z,96170.63
2018-05-18T06:40:58.816Z,96173.84
2018-05-18T06:43:26.524Z,96172.86
2018-05-18T06:45:55.263Z,96169.58
2018-05-18T06:48:22.891Z,96171.91
2018-05-18T06:50:50.566Z,96169.25
2018-05-18T06:53:18.252Z,96171.62
2018-05-18T06:55:45.895Z,96174.44
2018-05-18T06:58:13.634Z,96172.25
2018-05-18T07:00:41.329Z,96178.59
2018-05-18T07:03:10.663Z,96177.27
2018-05-18T07:05:38.323Z,96170.17
2018-05-18T07:08:06.005Z,96177.48
2018-05-18T07:10:41.446Z,96178.30
2018-05-18T07:13:10.550Z,96177.77
2018-05-18T07:15:38.238Z,96176.98
2018-05-18T07:18:05.941Z,96170.88
2018-05-18T07:20:33.672Z,96177.81
2018-05-18T07:23:02.490Z,96173.23
2018-05-18T07:25:30.322Z,96174.51
2018-05-18T07:27:58.109Z,96175.52
2018-05-18T07:30:25.799Z,96174.16
2018-05-18T07:32:53.486Z,96173.23
2018-05-18T07:35:24.190Z,96174.64
2018-05-18T07:37:54.919Z,96165.33
2018-05-18T07:40:22.608Z,96172.19
2018-05-18T07:42:51.152Z,96169.28
2018-05-18T07:45:18.906Z,96171.64
2018-05-18T07:47:47.422Z,96174.80
2018-05-18T07:50:15.058Z,96171.95
2018-05-18T07:52:43.738Z,96165.79
2018-05-18T07:55:12.385Z,96163.67
2018-05-18T07:57:41.063Z,96168.32
2018-05-18T08:00:11.134Z,96166.27
2018-05-18T08:02:38.896Z,96175.08
2018-05-18T08:05:06.637Z,96162.22
2018-05-18T08:07:34.584Z,96162.13
2018-05-18T08:10:02.883Z,96166.28
2018-05-18T08:12:30.768Z,96166.77
2018-05-18T08:15:03.049Z,96172.18
2018-05-18T08:17:36.033Z,96179.52
2018-05-18T08:20:11.189Z,96179.35
2018-05-18T08:22:38.959Z,96175.92
2018-05-18T08:25:07.276Z,96173.13
2018-05-18T08:27:34.965Z,96177.77
2018-05-18T08:32:42.227Z,96186.34
2018-05-18T08:35:15.559Z,96197.37
2018-05-18T08:37:43.216Z,96201.89
2018-05-18T08:40:10.898Z,96199.25
2018-05-18T08:42:38.629Z,96209.16
2018-05-18T08:45:06.363Z,96195.16
2018-05-18T08:47:34.055Z,96200.59
2018-05-18T08:50:02.190Z,96194.95
2018-05-18T08:52:34.309Z,96205.81
2018-05-18T08:55:02.040Z,96198.53
2018-05-18T08:57:29.849Z,96200.41
2018-05-18T08:59:57.543Z,96196.41
2018-05-18T09:02:25.277Z,96199.86
2018-05-18T09:04:52.954Z,96203.86
2018-05-18T09:09:54.453Z,96198.37
2018-05-18T09:12:23.429Z,96199.75
2018-05-18T09:14:51.683Z,96207.38
2018-05-18T09:17:19.650Z,96203.83
2018-05-18T09:19:47.364Z,96210.27
2018-05-18T09:22:15.051Z,96217.82
2018-05-18T09:24:42.762Z,96223.64
2018-05-18T09:27:10.717Z,96228.64
2018-05-18T09:29:39.279Z,96229.23
2018-05-18T09:32:09.053Z,96224.54
2018-05-18T09:34:36.622Z,96237.67
2018-05-18T09:37:04.438Z,96236.50
2018-05-18T09:39:32.169Z,96235.16
2018-05-18T09:41:59.854Z,96240.28
2018-05-18T09:44:31.169Z,96239.85
2018-05-18T09:46:59.028Z,96238.80
2018-05-18T09:49:26.677Z,96224.77
2018-05-18T09:51:58.383Z,96208.11
2018-05-18T09:54:26.362Z,96233.55
2018-05-18T09:56:53.758Z,96242.38
2018-05-18T09:59:21.480Z,96240.83
2018-05-18T10:01:50.010Z,96246.70
2018-05-18T10:04:19.681Z,96246.38
2018-05-18T10:06:47.482Z,96241.30
2018-05-18T10:09:15.499Z,96243.70
2018-05-18T10:11:43.161Z,96246.70
2018-05-18T10:14:10.851Z,96242.55
2018-05-18T10:16:39.684Z,96244.64
2018-05-18T10:19:08.477Z,96232.23
2018-05-18T10:21:36.723Z,96226.63
2018-05-18T10:24:04.501Z,96234.92
2018-05-18T10:26:32.101Z,96227.59
2018-05-18T10:29:01.296Z,96235.55
2018-05-18T10:31:30.577Z,96228.28
2018-05-18T10:33:58.177Z,96231.86
2018-05-18T10:36:25.828Z,96224.20
2018-05-18T10:38:53.582Z,96222.97
2018-05-18T10:41:23.124Z,96216.12
2018-05-18T10:43:51.543Z,96220.87
2018-05-18T10:46:19.267Z,96217.82
2018-05-18T10:48:47.055Z,96219.50
2018-05-18T10:51:17.795Z,96217.42
2018-05-18T10:53:45.522Z,96213.69
2018-05-18T10:56:13.718Z,96223.78
2018-05-18T10:58:41.639Z,96222.77
2018-05-18T11:01:11.182Z,96217.55
2018-05-18T11:03:39.219Z,96225.96
2018-05-18T11:06:08.807Z,96218.53
2018-05-18T11:08:39.813Z,96218.64
2018-05-18T11:11:11.887Z,96215.28
2018-05-18T11:13:40.668Z,96213.42
2018-05-18T11:16:09.002Z,96209.86
2018-05-18T11:18:36.757Z,96212.13
2018-05-18T11:21:05.644Z,96206.64
2018-05-18T11:23:34.325Z,96194.34
2018-05-18T11:26:02.988Z,96204.03
2018-05-18T11:28:30.728Z,96198.48
2018-05-18T11:31:05.771Z,96206.58
2018-05-18T11:33:37.689Z,96205.06
2018-05-18T11:36:07.005Z,96188.80
2018-05-18T11:38:38.221Z,96186.32
2018-05-18T11:41:08.937Z,96198.16
2018-05-18T11:43:41.779Z,96198.48
2018-05-18T11:46:19.102Z,96163.51
2018-05-18T11:48:46.636Z,96184.02
2018-05-18T11:51:14.876Z,96171.52
2018-05-18T11:53:44.897Z,96172.67
2018-05-18T11:59:23.381Z,96170.00
2018-05-18T12:01:52.021Z,96168.90
2018-05-18T12:04:25.059Z,96141.70
2018-05-18T12:06:55.329Z,96167.02
2018-05-18T12:09:24.662Z,96165.15
2018-05-18T12:12:11.363Z,96170.36
2018-05-18T12:14:42.328Z,96167.25
2018-05-18T12:17:20.693Z,96154.20
2018-05-18T12:19:59.192Z,96156.09
2018-05-18T12:23:03.116Z,96150.13
2018-05-18T12:25:54.197Z,96145.09
2018-05-18T18:31:16.472Z,96225.16
2018-05-18T18:33:57.199Z,96232.55
2018-05-18T18:36:46.947Z,96232.11
2018-05-18T18:39:20.709Z,96239.17
2018-05-18T18:42:04.561Z,96228.89
2018-05-18T18:44:38.662Z,96253.94
2018-05-18T18:47:24.967Z,96250.39
2018-05-18T18:49:58.330Z,96253.80
2018-05-18T18:52:55.620Z,96252.50
2018-05-18T18:58:18.864Z,96265.17
2018-05-18T20:23:06.257Z,96285.36
2018-05-18T20:28:47.583Z,96290.52
2018-05-18T20:32:02.641Z,96288.03
2018-05-18T21:16:41.960Z,96308.14
2018-05-18T22:58:00.200Z,96248.11
2018-05-18T23:28:12.266Z,96274.73
2018-05-18T23:41:30.602Z,96272.55
2018-05-18T23:47:03.584Z,96272.73
2018-05-18T23:58:15.890Z,96271.04
